Time;durP1;ratioP1;P1;durP2;ratioP2;P2;SDS_P1;SDS_P2;PMS_P1;PMS_P2;Temp;Humidity;BMP_temperature;BMP_pressure;BME280_temperature;BME280_humidity;BME280_pressure;Samples;Min_cycle;Max_cycle;Signal;HPM_P1;HPM_P2
2022/10/21 00:02:37;;;;;;;1.15;0.98;;;;;;;18.96;65.80;96345.03;10562575;28;20353;-32
2022/10/21 00:07:37;;;;;;;1.60;1.00;;;;;;;18.95;65.37;96333.22;10564362;28;20043;-30
2022/10/21 00:12:38;;;;;;;1.57;1.20;;;;;;;18.89;64.54;96333.25;10562088;28;20109;-29
2022/10/21 00:17:41;;;;;;;1.67;1.05;;;;;;;18.92;64.61;96348.47;10558704;28;20413;-31
2022/10/21 00:22:42;;;;;;;1.63;1.23;;;;;;;18.90;65.57;96345.94;10549485;28;20028;-30
2022/10/21 00:27:43;;;;;;;1.60;1.07;;;;;;;19.00;67.41;96377.16;10560136;28;20035;-31
2022/10/21 00:32:43;;;;;;;3.88;1.13;;;;;;;19.02;67.29;96408.44;10564308;28;20339;-30
2022/10/21 00:37:44;;;;;;;1.25;0.88;;;;;;;19.02;65.97;96405.91;10553938;28;20023;-31
2022/10/21 00:42:44;;;;;;;1.93;1.00;;;;;;;19.00;65.71;96402.53;10564336;28;20557;-30
2022/10/21 00:48:20;;;;;;;2.72;0.93;;;;;;;18.96;66.01;96401.72;10561514;28;20027;-31
2022/10/21 00:53:21;;;;;;;3.35;1.48;;;;;;;18.96;66.21;96390.72;10545351;28;20035;-30
2022/10/21 00:58:25;;;;;;;1.70;1.15;;;;;;;18.93;65.00;96361.13;10562084;28;20378;-31
2022/10/21 01:03:27;;;;;;;0.95;0.75;;;;;;;18.93;64.79;96358.59;10558327;28;20028;-31
2022/10/21 01:08:28;;;;;;;2.53;1.02;;;;;;;18.89;65.15;96343.41;10561536;28;20039;-30
2022/10/21 01:13:46;;;;;;;1.33;1.10;;;;;;;18.91;64.80;96336.66;10553939;28;20409;-30
2022/10/21 01:19:12;;;;;;;1.13;0.98;;;;;;;18.88;64.86;96336.66;10556526;28;20040;-31
2022/10/21 01:24:44;;;;;;;1.33;1.00;;;;;;;18.92;66.27;96316.31;10556202;28;20046;-30
2022/10/21 01:29:59;;;;;;;1.92;1.27;;;;;;;18.98;67.07;96308.66;10562320;28;20031;-30
2022/10/21 01:35:23;;;;;;;1.98;1.42;;;;;;;19.00;66.81;96303.59;10558722;28;20071;-30
2022/10/21 01:40:30;;;;;;;1.40;0.90;;;;;;;18.94;65.82;96298.56;10562101;28;20535;-31
2022/10/21 01:45:38;;;;;;;1.30;1.20;;;;;;;18.96;65.80;96294.31;10561586;28;20397;-31
2022/10/21 01:50:44;;;;;;;2.15;1.20;;;;;;;18.95;65.58;96287.56;10552990;28;20031;-30
2022/10/21 01:55:47;;;;;;;1.17;1.00;;;;;;;18.93;65.33;96292.63;10565684;28;20496;-30
2022/10/21 02:00:51;;;;;;;2.15;0.90;;;;;;;18.93;65.09;96295.16;10563154;28;20043;-30
2022/10/21 02:05:51;;;;;;;1.08;0.90;;;;;;;18.93;64.73;96299.41;10564138;28;20222;-32
2022/10/21 02:10:57;;;;;;;5.18;1.10;;;;;;;18.92;65.53;96296.03;10568609;28;20385;-31
2022/10/21 02:16:02;;;;;;;2.70;1.30;;;;;;;18.92;64.79;96310.44;10558681;28;20048;-35
2022/10/21 02:21:07;;;;;;;1.23;0.75;;;;;;;18.90;64.83;96290.13;10568305;28;20036;-31
2022/10/21 02:26:08;;;;;;;1.65;1.10;;;;;;;18.95;66.72;96290.94;10567605;28;20077;-30
2022/10/21 02:31:23;;;;;;;1.77;1.20;;;;;;;18.99;67.08;96284.97;10557958;28;20527;-30
2022/10/21 02:36:41;;;;;;;1.98;1.20;;;;;;;18.98;66.08;96280.75;10561759;28;20145;-30
2022/10/21 02:41:43;;;;;;;1.70;1.60;;;;;;;18.99;65.61;96279.09;10545514;28;20508;-30
2022/10/21 02:46:46;;;;;;;1.10;1.00;;;;;;;18.95;65.80;96273.19;10561201;28;20390;-30
2022/10/21 02:51:46;;;;;;;1.10;1.00;;;;;;;18.94;65.64;96263.91;10566497;28;20028;-30
2022/10/21 02:56:47;;;;;;;1.48;1.13;;;;;;;18.94;65.81;96275.72;10563368;28;20025;-30
2022/10/21 03:01:47;;;;;;;0.90;0.73;;;;;;;18.92;65.10;96285.88;10563593;28;20036;-31
2022/10/21 03:06:47;;;;;;;1.17;0.90;;;;;;;18.91;65.51;96270.69;10560708;28;20286;-31
2022/10/21 03:11:48;;;;;;;1.13;0.80;;;;;;;18.91;64.74;96265.63;10568088;28;20765;-31
2022/10/21 03:16:48;;;;;;;1.17;0.80;;;;;;;18.92;64.81;96267.31;10565897;28;20472;-30
2022/10/21 03:21:48;;;;;;;1.87;1.20;;;;;;;18.89;65.30;96267.31;10561130;28;20031;-29
2022/10/21 03:26:49;;;;;;;2.27;0.97;;;;;;;18.93;66.66;96266.44;10564244;28;20015;-32
2022/10/21 03:31:49;;;;;;;0.90;0.83;;;;;;;18.96;67.47;96258.78;10563898;28;20036;-30
2022/10/21 03:36:49;;;;;;;1.90;0.90;;;;;;;18.98;66.01;96262.16;10563346;28;20298;-30
2022/10/21 03:41:50;;;;;;;1.80;1.00;;;;;;;18.97;65.80;96280.75;10560371;28;20124;-31
2022/10/21 03:46:50;;;;;;;1.60;1.27;;;;;;;18.94;65.90;96283.34;10565192;28;20755;-31
2022/10/21 03:51:51;;;;;;;1.23;0.90;;;;;;;18.91;64.95;96268.16;10561819;28;20032;-31
2022/10/21 03:56:51;;;;;;;1.10;1.00;;;;;;;18.87;64.95;96259.75;10566215;28;20286;-30
2022/10/21 04:01:51;;;;;;;1.60;1.00;;;;;;;18.91;65.53;96285.91;10561678;28;20085;-31
2022/10/21 04:06:52;;;;;;;2.07;1.10;;;;;;;18.92;65.49;96300.28;10565287;28;20284;-31
2022/10/21 04:11:52;;;;;;;1.37;0.97;;;;;;;18.90;64.66;96300.28;10562483;28;20024;-30
2022/10/21 04:16:52;;;;;;;1.53;1.33;;;;;;;18.91;65.13;96291.00;10560192;28;20031;-30
2022/10/21 04:21:53;;;;;;;0.97;0.77;;;;;;;18.88;64.55;96285.91;10557648;28;20046;-29
2022/10/21 04:26:53;;;;;;;2.50;1.03;;;;;;;18.85;65.65;96271.56;10560399;28;20497;-30
2022/10/21 04:31:54;;;;;;;1.98;1.20;;;;;;;18.90;67.14;96256.31;10563843;28;20409;-32
2022/10/21 04:36:54;;;;;;;2.55;0.80;;;;;;;18.98;67.07;96252.00;10554744;28;20028;-31
2022/10/21 04:41:55;;;;;;;0.70;0.70;;;;;;;18.95;66.24;96221.59;10556855;28;20028;-30
2022/10/21 04:46:55;;;;;;;1.45;0.85;;;;;;;18.97;65.47;96209.75;10556396;28;20334;-31
2022/10/21 04:51:56;;;;;;;1.17;0.90;;;;;;;18.93;65.73;96239.38;10561370;28;20105;-31
2022/10/21 04:56:56;;;;;;;2.45;1.10;;;;;;;18.90;66.27;96186.13;10563204;28;20286;-31
2022/10/21 05:01:57;;;;;;;4.05;1.30;;;;;;;18.91;64.73;96214.91;10555723;28;20058;-29
2022/10/21 05:06:57;;;;;;;2.43;1.70;;;;;;;18.81;64.63;96183.69;10564010;28;20165;-29
2022/10/21 05:11:57;;;;;;;2.37;1.20;;;;;;;18.89;64.79;96196.28;10559723;28;20039;-27
2022/10/21 05:16:58;;;;;;;5.40;1.30;;;;;;;18.89;64.78;96191.22;10560552;28;20035;-30
2022/10/21 05:21:58;;;;;;;5.67;1.47;;;;;;;18.87;65.07;96198.88;10547025;28;20039;-29
2022/10/21 05:26:58;;;;;;;7.93;1.80;;;;;;;18.88;66.05;96184.47;10560111;28;20047;-29
2022/10/21 05:31:59;;;;;;;13.70;3.47;;;;;;;18.93;68.87;96197.97;10561019;28;20337;-31
2022/10/21 05:36:59;;;;;;;12.87;2.97;;;;;;;18.98;68.70;96226.63;10553336;28;20063;-29
2022/10/21 05:41:59;;;;;;;12.57;2.77;;;;;;;19.01;67.22;96170.81;10564383;28;20046;-29
2022/10/21 05:47:00;;;;;;;5.77;1.93;;;;;;;18.98;66.34;96191.97;10560407;28;20035;-29
2022/10/21 05:52:01;;;;;;;2.97;1.80;;;;;;;18.95;66.59;96199.63;10553182;28;20044;-29
2022/10/21 05:57:01;;;;;;;8.90;2.75;;;;;;;18.91;68.08;96212.34;10562012;28;20837;-29
2022/10/21 06:02:02;;;;;;;8.10;2.03;;;;;;;18.84;66.04;96167.63;10562846;28;20111;-28
2022/10/21 06:07:02;;;;;;;10.45;2.15;;;;;;;18.89;67.47;96131.19;10562318;28;20469;-29
2022/10/21 06:12:03;;;;;;;13.00;1.75;;;;;;;18.90;66.66;96124.41;10558559;28;20537;-30
2022/10/21 06:17:04;;;;;;;7.57;1.80;;;;;;;18.91;67.22;96118.50;10556290;28;20468;-29
2022/10/21 06:22:04;;;;;;;5.68;2.00;;;;;;;18.92;66.82;96135.41;10524612;28;20118;-28
2022/10/21 06:27:05;;;;;;;11.05;2.47;;;;;;;18.91;65.12;96165.00;10554838;28;20028;-30
2022/10/21 06:32:05;;;;;;;8.10;2.95;;;;;;;18.92;66.75;96165.84;10555981;28;20058;-29
2022/10/21 06:37:05;;;;;;;15.15;4.35;;;;;;;18.91;69.69;96146.41;10545165;28;20038;-29
2022/10/21 06:42:06;;;;;;;11.07;4.40;;;;;;;19.00;68.62;96156.47;10568777;28;20023;-30
2022/10/21 06:47:13;;;;;;;12.07;4.03;;;;;;;18.98;67.67;96151.38;10566003;28;20288;-28
2022/10/21 06:52:14;;;;;;;9.32;3.10;;;;;;;18.95;67.31;96160.72;10562455;28;20031;-29
2022/10/21 06:57:14;;;;;;;14.57;5.57;;;;;;;18.95;67.20;96161.56;10560114;28;20435;-29
2022/10/21 07:02:14;;;;;;;12.82;5.30;;;;;;;18.93;67.43;96152.31;10559890;28;20035;-28
2022/10/21 07:07:15;;;;;;;16.13;6.97;;;;;;;18.93;67.74;96152.31;10561533;27;20436;-29
2022/10/21 07:12:16;;;;;;;11.73;6.63;;;;;;;18.87;65.72;96134.59;10561833;28;20028;-29
2022/10/21 07:17:17;;;;;;;15.15;4.85;;;;;;;18.93;66.49;96137.06;10544329;28;20023;-29
2022/10/21 07:22:17;;;;;;;17.60;9.70;;;;;;;18.93;66.09;96147.22;10560069;28;20028;-29
2022/10/21 07:27:17;;;;;;;17.17;9.13;;;;;;;18.92;65.81;96165.84;10568216;28;20431;-28
2022/10/21 07:32:18;;;;;;;19.40;9.15;;;;;;;18.91;65.50;96177.66;10569515;28;20285;-29
2022/10/21 07:37:18;;;;;;;22.05;10.48;;;;;;;18.97;69.14;96202.97;10557292;28;20043;-28
2022/10/21 07:42:20;;;;;;;19.73;10.18;;;;;;;19.06;68.60;96217.25;10561720;28;20377;-29
2022/10/21 07:47:20;;;;;;;35.67;11.88;;;;;;;19.03;67.91;96227.44;10566330;28;20027;-28
2022/10/21 07:52:21;;;;;;;21.03;4.93;;;;;;;19.01;66.03;96267.22;10557347;28;20027;-30
2022/10/21 07:57:21;;;;;;;14.48;4.80;;;;;;;18.95;65.23;96325.59;10559737;28;20293;-28
2022/10/21 08:02:23;;;;;;;14.52;6.07;;;;;;;18.92;65.12;96353.53;10564650;28;20067;-29
2022/10/21 08:07:24;;;;;;;8.00;3.42;;;;;;;18.87;65.64;96330.75;10565751;28;20023;-29
2022/10/21 08:12:25;;;;;;;7.10;3.80;;;;;;;18.85;65.38;96341.75;10563282;28;20501;-29
2022/10/21 08:17:25;;;;;;;9.00;3.95;;;;;;;18.77;65.28;96335.91;10561319;28;20478;-28
2022/10/21 08:22:25;;;;;;;9.03;4.30;;;;;;;18.82;65.44;96337.53;10538454;28;20023;-28
2022/10/21 08:27:26;;;;;;;8.60;4.93;;;;;;;18.88;65.01;96345.13;10565729;28;20768;-29
2022/10/21 08:32:26;;;;;;;13.73;5.43;;;;;;;18.82;65.32;96331.66;10545692;28;20042;-29
2022/10/21 08:37:27;;;;;;;16.75;10.15;;;;;;;18.94;68.07;96346.75;10553062;28;20301;-29
2022/10/21 08:42:27;;;;;;;20.92;11.38;;;;;;;18.98;68.56;96364.47;10565923;28;20669;-29
2022/10/21 08:47:44;;;;;;;16.48;9.02;;;;;;;19.04;68.23;96378.81;10561354;28;20560;-29
2022/10/21 08:53:08;;;;;;;17.08;6.95;;;;;;;18.94;66.71;96367.06;10552881;28;20051;-28
2022/10/21 08:58:20;;;;;;;12.32;6.82;;;;;;;18.92;66.57;96374.66;10539934;28;20044;-29
2022/10/21 09:03:36;;;;;;;10.52;6.97;;;;;;;18.90;66.48;96376.38;10562632;28;20015;-28
2022/10/21 09:09:00;;;;;;;11.02;5.60;;;;;;;18.89;66.44;96378.91;10562073;28;20165;-30
2022/10/21 09:14:22;;;;;;;15.07;7.22;;;;;;;18.86;66.26;96394.16;10560127;28;20413;-29
2022/10/21 09:19:46;;;;;;;15.65;6.90;;;;;;;18.88;66.12;96392.44;10551070;28;20122;-28
2022/10/21 09:25:17;;;;;;;12.90;6.63;;;;;;;18.79;66.29;96389.97;10555557;28;20035;-29
2022/10/21 09:30:23;;;;;;;11.68;5.03;;;;;;;18.81;66.03;96388.28;10515933;28;20556;-28
2022/10/21 09:35:33;;;;;;;8.52;5.20;;;;;;;18.88;65.88;96400.06;10537427;28;20559;-28
2022/10/21 09:40:34;;;;;;;19.40;8.70;;;;;;;18.95;69.00;96410.19;10563888;28;20035;-29
2022/10/21 09:45:37;;;;;;;14.15;7.05;;;;;;;19.00;69.05;96423.66;10561949;28;20023;-28
2022/10/21 09:50:38;;;;;;;14.95;6.78;;;;;;;19.03;68.35;96416.03;10553181;28;20036;-28
2022/10/21 09:55:39;;;;;;;11.55;5.57;;;;;;;18.98;66.11;96407.59;10562276;28;20024;-29
2022/10/21 10:00:41;;;;;;;9.60;5.53;;;;;;;18.94;65.51;96403.44;10559057;28;20051;-28
2022/10/21 10:05:48;;;;;;;7.20;5.03;;;;;;;18.92;65.57;96404.28;10553401;28;20043;-31
2022/10/21 10:10:48;;;;;;;;;;;;;;;18.92;65.48;96419.50;10557534;28;20063;-29
2022/10/21 10:15:48;;;;;;;9.20;5.20;;;;;;;18.90;65.56;96413.56;10553492;28;20444;-28
2022/10/21 10:21:09;;;;;;;8.27;4.90;;;;;;;18.90;65.75;96441.47;10563106;28;20036;-28
2022/10/21 10:26:16;;;;;;;6.72;4.70;;;;;;;18.90;65.40;96436.41;10547719;28;20047;-29
2022/10/21 10:31:30;;;;;;;7.15;4.57;;;;;;;18.88;65.49;96440.66;10563091;28;20066;-29
2022/10/21 10:36:37;;;;;;;8.52;4.68;;;;;;;18.90;65.42;96455.00;10559264;28;20039;-29
2022/10/21 10:41:39;;;;;;;9.10;5.15;;;;;;;18.94;67.80;96440.63;10564656;28;20031;-28
2022/10/21 10:46:41;;;;;;;13.80;5.38;;;;;;;19.00;69.19;96427.91;10562250;28;20111;-29
2022/10/21 10:51:45;;;;;;;8.50;4.65;;;;;;;19.04;68.73;96429.56;10552646;28;20379;-29
2022/10/21 10:57:08;;;;;;;6.22;4.28;;;;;;;19.00;66.81;96438.06;10562437;28;20106;-33
2022/10/21 11:02:08;;;;;;;7.75;3.88;;;;;;;18.95;68.23;96445.69;10560878;28;20125;-28
2022/10/21 11:07:20;;;;;;;15.43;4.22;;;;;;;18.89;68.09;96444.88;10560038;28;20499;-28
2022/10/21 11:12:25;;;;;;;5.70;3.63;;;;;;;18.90;66.32;96449.09;10546967;28;20165;-28
2022/10/21 11:17:37;;;;;;;6.07;4.18;;;;;;;18.92;65.68;96455.84;10559321;28;20059;-29
2022/10/21 11:23:00;;;;;;;6.18;4.43;;;;;;;18.91;65.55;96446.56;10547641;28;20028;-30
2022/10/21 11:28:37;;;;;;;6.38;3.70;;;;;;;18.92;65.81;96453.31;10542491;28;20052;-29
2022/10/21 11:33:49;;;;;;;5.60;4.00;;;;;;;18.90;65.59;96457.56;10566468;28;20434;-30
2022/10/21 11:39:27;;;;;;;4.93;3.45;;;;;;;18.90;65.35;96449.09;10554058;28;20464;-28
2022/10/21 11:44:52;;;;;;;10.98;4.82;;;;;;;19.01;69.08;96452.41;10566739;28;20035;-29
2022/10/21 11:49:56;;;;;;;8.70;5.07;;;;;;;19.05;69.49;96446.47;10551626;28;20027;-29
2022/10/21 11:55:16;;;;;;;9.98;4.53;;;;;;;19.02;68.24;96457.47;10567668;28;20461;-28
2022/10/21 12:00:20;;;;;;;5.28;4.03;;;;;;;18.99;66.36;96461.75;10560317;28;20066;-30
2022/10/21 12:05:25;;;;;;;9.23;3.05;;;;;;;18.88;67.58;96460.94;10560518;28;20028;-29
2022/10/21 12:10:38;;;;;;;7.05;3.33;;;;;;;18.92;65.95;96467.69;10558910;28;20027;-28
2022/10/21 12:15:52;;;;;;;5.32;3.47;;;;;;;18.91;65.57;96464.31;10558445;28;20096;-28
2022/10/21 12:20:54;;;;;;;7.72;4.03;;;;;;;18.89;65.55;96466.00;10551190;28;20493;-29
2022/10/21 12:25:55;;;;;;;6.68;3.63;;;;;;;18.91;65.50;96479.53;10562119;28;20027;-29
2022/10/21 12:31:02;;;;;;;4.37;3.57;;;;;;;18.91;65.42;96504.06;10558160;28;20035;-29
2022/10/21 12:36:17;;;;;;;4.35;3.15;;;;;;;18.86;65.35;96515.91;10537446;28;20409;-29
2022/10/21 12:41:28;;;;;;;8.38;4.45;;;;;;;18.91;68.82;96501.53;10567479;28;20108;-29
2022/10/21 12:46:28;;;;;;;9.73;5.13;;;;;;;19.03;70.42;96489.63;10551315;28;20024;-29
2022/10/21 12:51:32;;;;;;;6.93;4.93;;;;;;;19.05;69.69;96485.38;10534482;28;20036;-28
2022/10/21 12:56:40;;;;;;;11.20;4.40;;;;;;;19.04;68.71;96467.63;10561936;28;20440;-29
2022/10/21 13:01:45;;;;;;;6.80;3.88;;;;;;;19.00;66.77;96435.53;10554198;28;20064;-29
2022/10/21 13:06:56;;;;;;;6.60;4.38;;;;;;;18.95;66.75;96419.47;10541706;28;20019;-29
2022/10/21 13:12:09;;;;;;;10.07;3.85;;;;;;;18.94;65.62;96435.53;10560458;28;20106;-29
2022/10/21 13:17:22;;;;;;;6.10;3.08;;;;;;;18.93;65.70;96428.78;10538072;28;20028;-28
2022/10/21 13:22:40;;;;;;;6.00;3.40;;;;;;;18.91;65.50;96433.03;10560204;28;20091;-29
2022/10/21 13:27:51;;;;;;;4.50;3.05;;;;;;;18.91;65.31;96416.09;10544666;28;20043;-30
2022/10/21 13:33:03;;;;;;;4.97;3.28;;;;;;;18.89;65.43;96404.28;10553086;28;20060;-31
2022/10/21 13:38:20;;;;;;;4.07;2.90;;;;;;;18.90;65.36;96416.09;10560221;28;20043;-31
2022/10/21 13:43:29;;;;;;;6.15;3.63;;;;;;;18.90;65.67;96413.56;10557957;28;20517;-28
2022/10/21 13:48:35;;;;;;;11.50;4.40;;;;;;;19.02;70.34;96421.13;10565421;28;20040;-30
2022/10/21 13:53:44;;;;;;;5.43;4.18;;;;;;;19.05;70.07;96410.94;10560564;28;20035;-29
2022/10/21 13:58:45;;;;;;;4.15;3.17;;;;;;;19.04;68.49;96391.50;10557253;28;20041;-28
2022/10/21 14:03:48;;;;;;;4.90;3.67;;;;;;;18.97;67.31;96374.63;10560057;28;20107;-29
2022/10/21 14:08:49;;;;;;;5.50;3.15;;;;;;;18.93;65.97;96357.75;10537166;28;20027;-30
2022/10/21 14:13:50;;;;;;;4.82;2.95;;;;;;;18.91;65.75;96362.00;10564498;28;20028;-30
2022/10/21 14:18:52;;;;;;;3.67;2.88;;;;;;;18.91;65.74;96372.16;10557959;28;20032;-29
2022/10/21 14:23:53;;;;;;;4.15;2.78;;;;;;;18.89;65.56;96369.63;10537479;28;20093;-28
2022/10/21 14:28:53;;;;;;;4.85;2.83;;;;;;;18.90;65.51;96370.44;10548206;28;20387;-28
2022/10/21 14:33:54;;;;;;;5.90;3.65;;;;;;;18.92;66.56;96389.88;10565425;28;20039;-29
2022/10/21 14:38:59;;;;;;;6.03;2.95;;;;;;;18.93;65.41;96400.88;10559903;28;20373;-32
2022/10/21 14:44:20;;;;;;;6.50;2.58;;;;;;;18.91;65.31;96397.53;10539437;28;20040;-29
2022/10/21 14:49:21;;;;;;;9.80;5.03;;;;;;;18.98;70.48;96394.94;10558844;28;20036;-28
2022/10/21 14:54:41;;;;;;;9.10;3.83;;;;;;;19.04;70.80;96392.34;10555353;28;20039;-28
2022/10/21 14:59:42;;;;;;;5.25;3.40;;;;;;;19.04;69.33;96394.88;10550449;28;20043;-29
2022/10/21 15:04:55;;;;;;;7.50;3.92;;;;;;;19.02;68.24;96386.41;10550649;28;20042;-28
2022/10/21 15:10:01;;;;;;;8.20;3.47;;;;;;;18.99;68.00;96380.56;10565963;28;20035;-29
2022/10/21 15:15:03;;;;;;;7.15;3.30;;;;;;;18.93;66.07;96385.66;10563107;27;20084;-28
2022/10/21 15:20:03;;;;;;;6.18;2.88;;;;;;;18.91;65.73;96382.31;10558586;28;20028;-29
2022/10/21 15:25:12;;;;;;;7.32;3.45;;;;;;;18.91;65.50;96362.00;10564474;27;20024;-29
2022/10/21 15:30:12;;;;;;;4.85;2.50;;;;;;;18.90;65.37;96378.06;10555849;27;20031;-30
2022/10/21 15:35:16;;;;;;;5.17;2.60;;;;;;;18.85;65.51;96365.41;10559283;27;20028;-29
2022/10/21 15:40:18;;;;;;;4.13;2.58;;;;;;;18.91;65.34;96387.38;10557196;28;20289;-28
2022/10/21 15:45:21;;;;;;;6.50;3.22;;;;;;;18.90;65.33;96400.88;10571246;28;20034;-29
2022/10/21 15:50:26;;;;;;;4.30;2.75;;;;;;;18.93;68.84;96389.03;10553619;28;20047;-30
2022/10/21 15:55:26;;;;;;;6.28;3.40;;;;;;;19.02;70.20;96385.59;10564527;27;20034;-29
2022/10/21 16:00:27;;;;;;;8.65;3.75;;;;;;;19.04;70.04;96379.66;10559266;28;20034;-29
2022/10/21 16:05:28;;;;;;;12.40;3.90;;;;;;;19.00;67.83;96372.09;10533047;28;20032;-29
2022/10/21 16:10:33;;;;;;;4.78;2.80;;;;;;;18.94;66.26;96352.69;10574529;28;20042;-29
2022/10/21 16:15:34;;;;;;;8.63;3.20;;;;;;;18.88;66.09;96356.94;10553945;28;20166;-31
2022/10/21 16:20:35;;;;;;;10.93;3.05;;;;;;;18.87;66.49;96360.34;10564751;28;20616;-30
2022/10/21 16:25:36;;;;;;;7.10;3.35;;;;;;;18.91;66.58;96359.47;10556609;28;20028;-30
2022/10/21 16:30:38;;;;;;;9.05;3.70;;;;;;;18.90;65.75;96360.31;10554763;28;20020;-29
2022/10/21 16:35:38;;;;;;;7.43;2.28;;;;;;;18.89;65.64;96340.88;10562364;28;20032;-28
2022/10/21 16:40:39;;;;;;;5.57;2.80;;;;;;;18.91;65.89;96354.41;10556756;28;20115;-29
2022/10/21 16:45:41;;;;;;;12.30;3.10;;;;;;;18.88;70.04;96346.81;10566756;28;20024;-29
2022/10/21 16:50:45;;;;;;;7.80;3.35;;;;;;;18.87;65.68;96366.28;10549402;28;20127;-29
2022/10/21 16:55:46;;;;;;;12.55;4.22;;;;;;;19.00;70.94;96372.09;10555918;28;20555;-28
2022/10/21 17:00:47;;;;;;;9.98;3.40;;;;;;;19.05;70.99;96355.13;10560489;28;20104;-30
2022/10/21 17:05:51;;;;;;;8.30;3.88;;;;;;;18.96;68.64;96334.91;10555679;28;20031;-29
2022/10/21 17:10:52;;;;;;;10.52;2.95;;;;;;;19.00;68.31;96341.66;10570489;28;20115;-29
2022/10/21 17:15:52;;;;;;;7.28;3.20;;;;;;;18.96;69.12;96332.38;10559137;28;20095;-28
2022/10/21 17:20:53;;;;;;;15.65;3.47;;;;;;;18.93;66.22;96329.88;10562824;28;20028;-29
2022/10/21 17:25:54;;;;;;;19.40;6.55;;;;;;;18.93;67.81;96333.22;10537737;28;20107;-28
2022/10/21 17:30:55;;;;;;;5.85;2.13;;;;;;;18.81;67.79;96335.00;10558460;28;20032;-28
2022/10/21 17:35:56;;;;;;;9.00;2.78;;;;;;;18.85;65.92;96317.22;10556655;28;20024;-29
2022/10/21 17:40:56;;;;;;;11.40;3.47;;;;;;;18.88;66.39;96316.34;10569175;28;20065;-29
2022/10/21 17:45:57;;;;;;;5.18;2.50;;;;;;;18.87;65.43;96312.16;10547293;28;20031;-30
2022/10/21 17:51:00;;;;;;;3.70;2.08;;;;;;;18.87;65.37;96304.53;10562668;28;20038;-30
2022/10/21 17:56:04;;;;;;;10.90;4.68;;;;;;;18.94;69.68;96321.38;10555539;28;20051;-29
2022/10/21 18:01:07;;;;;;;12.45;3.83;;;;;;;18.97;72.17;96322.22;10560922;28;20049;-28
2022/10/21 18:06:10;;;;;;;11.80;3.75;;;;;;;19.04;72.01;96328.06;10567588;28;20549;-30
2022/10/21 18:11:14;;;;;;;9.32;2.67;;;;;;;19.07;66.78;96317.88;10545844;28;20388;-30
2022/10/21 18:16:21;;;;;;;10.13;2.58;;;;;;;18.99;66.49;96314.59;10554147;28;20443;-29
2022/10/21 18:21:22;;;;;;;9.13;2.67;;;;;;;18.92;65.96;96310.44;10552429;28;20047;-29
2022/10/21 18:26:26;;;;;;;8.13;2.63;;;;;;;18.91;65.76;96301.13;10563357;28;20489;-29
2022/10/21 18:31:29;;;;;;;10.23;2.88;;;;;;;18.90;65.56;96299.44;10556746;28;20474;-29
2022/10/21 18:36:31;;;;;;;5.53;1.83;;;;;;;18.89;65.56;96302.81;10563361;28;20028;-28
2022/10/21 18:41:32;;;;;;;9.98;2.45;;;;;;;18.88;65.29;96293.53;10558332;27;20439;-29
2022/10/21 18:46:36;;;;;;;5.15;2.40;;;;;;;18.87;65.17;96286.78;10561358;28;20032;-27
2022/10/21 18:51:37;;;;;;;6.82;2.05;;;;;;;18.88;65.38;96298.59;10566338;28;20035;-28
2022/10/21 18:56:39;;;;;;;11.45;2.65;;;;;;;18.95;68.31;96300.25;10558282;28;20036;-29
2022/10/21 19:01:40;;;;;;;17.33;3.95;;;;;;;19.02;72.30;96337.41;10567268;27;20108;-29
2022/10/21 19:06:44;;;;;;;6.25;3.13;;;;;;;19.05;70.14;96320.44;10566998;28;20055;-29
2022/10/21 19:11:45;;;;;;;7.25;2.70;;;;;;;19.04;68.37;96317.91;10535419;28;20551;-29
2022/10/21 19:16:47;;;;;;;9.65;2.67;;;;;;;18.99;67.39;96310.34;10574414;27;20037;-30
2022/10/21 19:21:47;;;;;;;11.48;3.00;;;;;;;18.95;66.19;96300.25;10562899;28;20023;-28
2022/10/21 19:26:55;;;;;;;5.82;2.60;;;;;;;18.94;65.83;96311.25;10579757;28;20470;-30
2022/10/21 19:31:55;;;;;;;4.07;2.65;;;;;;;18.92;65.86;96300.28;10553472;28;20031;-28
2022/10/21 19:36:56;;;;;;;4.45;2.78;;;;;;;18.90;65.66;96294.34;10564286;28;20059;-29
2022/10/21 19:41:58;;;;;;;7.38;2.40;;;;;;;18.90;65.68;96299.44;10557778;28;20044;-30
2022/10/21 19:46:58;;;;;;;4.18;2.45;;;;;;;18.89;65.58;96296.06;10566118;28;20043;-29
2022/10/21 19:51:59;;;;;;;5.85;2.50;;;;;;;18.89;65.76;96303.69;10541369;28;20046;-30
2022/10/21 19:56:59;;;;;;;10.00;3.08;;;;;;;18.88;65.53;96344.25;10575037;28;20035;-30
2022/10/21 20:02:00;;;;;;;6.93;2.55;;;;;;;18.97;71.78;96392.38;10568703;27;20150;-29
2022/10/21 20:07:00;;;;;;;6.25;2.88;;;;;;;19.03;71.60;96427.88;10574848;27;20032;-29
2022/10/21 20:12:01;;;;;;;5.65;2.95;;;;;;;19.02;68.63;96429.56;10567947;28;20040;-29
2022/10/21 20:17:01;;;;;;;2.58;2.03;;;;;;;19.02;67.92;96441.41;10561965;28;20043;-30
2022/10/21 20:22:02;;;;;;;8.77;2.88;;;;;;;18.99;67.41;96456.66;10564721;28;20027;-29
2022/10/21 20:27:02;;;;;;;6.68;3.00;;;;;;;18.97;66.38;96455.81;10556967;28;20029;-29
2022/10/21 20:32:03;;;;;;;6.07;2.20;;;;;;;18.93;65.83;96457.53;10571418;27;20042;-29
2022/10/21 20:37:03;;;;;;;9.88;2.60;;;;;;;18.93;65.83;96477.00;10555339;28;20020;-30
2022/10/21 20:42:03;;;;;;;6.60;2.72;;;;;;;18.92;66.10;96508.28;10557792;28;20031;-30
2022/10/21 20:47:04;;;;;;;8.27;3.47;;;;;;;18.92;65.71;96520.97;10565083;28;20405;-29
2022/10/21 20:52:04;;;;;;;8.63;3.30;;;;;;;18.90;65.56;96507.44;10552339;28;20285;-30
2022/10/21 20:57:05;;;;;;;4.75;1.90;;;;;;;18.88;65.68;96496.44;10574379;28;20072;-29
2022/10/21 21:02:05;;;;;;;7.25;4.13;;;;;;;18.94;68.76;96506.56;10550249;28;20044;-28
2022/10/21 21:07:06;;;;;;;8.85;3.08;;;;;;;18.99;71.26;96505.69;10570286;27;20041;-31
2022/10/21 21:12:06;;;;;;;5.73;2.40;;;;;;;19.00;70.89;96493.88;10569736;28;20084;-30
2022/10/21 21:17:07;;;;;;;6.00;2.95;;;;;;;19.03;68.11;96498.91;10560274;27;20081;-30
2022/10/21 21:22:07;;;;;;;8.55;2.90;;;;;;;19.00;67.36;96489.63;10564454;28;20452;-30
2022/10/21 21:27:08;;;;;;;6.55;2.42;;;;;;;18.96;66.50;96492.19;10553795;28;20031;-29
2022/10/21 21:32:08;;;;;;;4.05;2.10;;;;;;;18.94;66.20;96488.81;10574018;28;20548;-29
2022/10/21 21:37:09;;;;;;;9.10;2.55;;;;;;;18.87;66.14;96493.09;10554911;28;20119;-29
2022/10/21 21:42:09;;;;;;;6.00;2.60;;;;;;;18.90;65.76;96489.66;10560982;28;20032;-30
2022/10/21 21:47:10;;;;;;;4.30;1.92;;;;;;;18.84;65.60;96475.34;10561298;28;20273;-29
2022/10/21 21:52:10;;;;;;;3.13;2.13;;;;;;;18.87;65.83;96477.00;10555264;28;20370;-29
2022/10/21 21:57:11;;;;;;;5.23;1.93;;;;;;;18.86;65.66;96475.34;10570538;28;20035;-30
2022/10/21 22:02:11;;;;;;;4.45;2.03;;;;;;;18.87;65.61;96477.00;10563462;28;20296;-30
2022/10/21 22:07:12;;;;;;;7.03;2.03;;;;;;;18.94;70.90;96468.53;10554488;28;20024;-33
2022/10/21 22:12:12;;;;;;;4.65;1.92;;;;;;;18.98;70.75;96480.31;10570779;28;20031;-29
2022/10/21 22:17:13;;;;;;;6.00;2.53;;;;;;;18.99;68.25;96482.88;10560320;28;20027;-30
2022/10/21 22:22:13;;;;;;;5.73;2.73;;;;;;;19.00;67.60;96488.78;10573030;27;20489;-30
2022/10/21 22:27:14;;;;;;;5.93;1.77;;;;;;;18.89;66.51;96480.38;10570747;28;20278;-30
2022/10/21 22:32:16;;;;;;;4.80;2.00;;;;;;;18.94;66.39;96499.81;10570129;28;20851;-29
2022/10/21 22:37:16;;;;;;;3.13;1.67;;;;;;;18.88;65.81;96499.00;10561440;28;20778;-29
2022/10/21 22:42:17;;;;;;;6.15;2.50;;;;;;;18.92;65.82;96518.44;10561195;28;20039;-30
2022/10/21 22:47:22;;;;;;;5.65;2.17;;;;;;;18.90;65.67;96512.50;10570515;28;20035;-29
2022/10/21 22:52:22;;;;;;;5.63;1.90;;;;;;;18.88;65.71;96510.00;10562591;27;20023;-29
2022/10/21 22:57:22;;;;;;;3.63;1.60;;;;;;;18.89;65.66;96520.97;10574189;28;20541;-30
2022/10/21 23:02:23;;;;;;;4.03;2.03;;;;;;;18.87;65.43;96508.31;10569356;28;20280;-30
2022/10/21 23:07:23;;;;;;;4.55;2.30;;;;;;;18.92;70.59;96505.75;10563085;28;20024;-29
2022/10/21 23:12:24;;;;;;;2.93;1.70;;;;;;;18.95;70.83;96460.06;10574328;27;20031;-29
2022/10/21 23:17:24;;;;;;;3.70;2.03;;;;;;;18.99;70.23;96487.13;10553654;28;20285;-29
2022/10/21 23:22:25;;;;;;;5.15;2.03;;;;;;;19.00;67.87;96459.19;10572181;28;20023;-30
2022/10/21 23:27:26;;;;;;;3.45;2.17;;;;;;;18.95;66.49;96452.44;10567708;28;20024;-30
2022/10/21 23:32:27;;;;;;;5.65;2.25;;;;;;;18.94;66.41;96471.91;10569030;28;20055;-29